Time;durP1;ratioP1;P1;durP2;ratioP2;P2;SDS_P1;SDS_P2;PMS_P1;PMS_P2;Temp;Humidity;BMP_temperature;BMP_pressure;BME280_temperature;BME280_humidity;BME280_pressure;Samples;Min_cycle;Max_cycle;Signal;HPM_P1;HPM_P2
2021/05/03 00:02:02;;;;;;;1.23;0.80;;;11.90;48.00;;;;;;5009193;28;20031;-77
2021/05/03 00:04:28;;;;;;;3.45;1.33;;;11.90;48.20;;;;;;5007625;28;20030;-77
2021/05/03 00:06:54;;;;;;;5.07;0.93;;;11.80;48.20;;;;;;5041000;28;20030;-77
2021/05/03 00:09:21;;;;;;;4.00;1.13;;;11.80;48.30;;;;;;5043988;28;20038;-77
2021/05/03 00:11:47;;;;;;;0.90;0.50;;;11.70;48.40;;;;;;5029850;28;20026;-77
2021/05/03 00:14:13;;;;;;;1.63;0.75;;;11.60;48.50;;;;;;5017184;28;20034;-77
2021/05/03 00:16:39;;;;;;;1.98;0.90;;;11.60;48.60;;;;;;5005138;28;20037;-77
2021/05/03 00:19:05;;;;;;;2.25;1.02;;;11.50;48.70;;;;;;5009412;28;20053;-77
2021/05/03 00:21:31;;;;;;;3.72;0.85;;;11.50;48.80;;;;;;5010562;28;20029;-77
2021/05/03 00:23:57;;;;;;;1.70;0.60;;;11.50;49.00;;;;;;5011254;28;20081;-77
2021/05/03 00:26:23;;;;;;;5.13;1.00;;;11.40;49.00;;;;;;5005832;28;20045;-77
2021/05/03 00:28:50;;;;;;;1.48;0.57;;;11.40;49.10;;;;;;5009847;28;20037;-77
2021/05/03 00:31:16;;;;;;;1.05;0.52;;;11.30;49.70;;;;;;5023468;28;20027;-77
2021/05/03 00:33:42;;;;;;;2.30;0.77;;;11.30;49.20;;;;;;5000637;28;20057;-77
2021/05/03 00:36:08;;;;;;;1.25;0.85;;;11.30;49.40;;;;;;5013494;28;20037;-77
2021/05/03 00:38:34;;;;;;;2.30;0.65;;;11.30;49.50;;;;;;5028498;28;20506;-77
2021/05/03 00:41:00;;;;;;;1.33;0.70;;;11.20;49.50;;;;;;5009899;28;20034;-77
2021/05/03 00:43:26;;;;;;;1.83;0.88;;;11.20;49.60;;;;;;5007809;28;20037;-77
2021/05/03 00:45:52;;;;;;;0.98;0.43;;;11.20;49.70;;;;;;5000052;28;20404;-78
2021/05/03 00:48:19;;;;;;;1.35;0.57;;;11.10;49.70;;;;;;4997326;28;20494;-78
2021/05/03 00:50:45;;;;;;;1.90;0.45;;;11.10;49.80;;;;;;5002380;28;20030;-77
2021/05/03 00:53:11;;;;;;;1.15;0.25;;;11.10;50.00;;;;;;5001233;28;20479;-76
2021/05/03 00:55:37;;;;;;;1.95;0.40;;;11.10;50.00;;;;;;5021241;28;20033;-77
2021/05/03 00:58:04;;;;;;;1.17;0.73;;;11.00;50.80;;;;;;5026186;28;20042;-77
2021/05/03 01:00:30;;;;;;;0.80;0.45;;;11.00;50.20;;;;;;5008598;28;20037;-77
2021/05/03 01:02:56;;;;;;;1.00;0.52;;;10.90;50.20;;;;;;5011975;28;20382;-77
2021/05/03 01:05:22;;;;;;;1.20;0.25;;;10.90;50.30;;;;;;5041157;28;20033;-77
2021/05/03 01:07:48;;;;;;;4.22;0.45;;;10.90;50.40;;;;;;4986108;28;20049;-77
2021/05/03 01:10:15;;;;;;;2.00;1.02;;;10.90;50.50;;;;;;4999378;28;20043;-77
2021/05/03 01:12:41;;;;;;;1.63;0.47;;;10.80;50.50;;;;;;5004519;28;20033;-77
2021/05/03 01:15:08;;;;;;;0.98;0.50;;;10.80;50.60;;;;;;5040480;28;20037;-77
2021/05/03 01:17:35;;;;;;;2.28;0.82;;;10.80;50.70;;;;;;5029585;28;20034;-77
2021/05/03 01:20:12;;;;;;;0.50;0.35;;;10.70;50.80;;;;;;5009160;28;20038;-77
2021/05/03 01:22:38;;;;;;;1.10;0.47;;;10.70;50.90;;;;;;5036965;28;20034;-77
2021/05/03 01:25:05;;;;;;;2.45;0.22;;;10.70;50.90;;;;;;5006279;28;20030;-76
2021/05/03 01:27:31;;;;;;;0.70;0.47;;;10.70;51.00;;;;;;5008304;28;20034;-76
2021/05/03 01:29:57;;;;;;;0.47;0.17;;;10.70;51.10;;;;;;5012397;28;20033;-76
2021/05/03 01:32:23;;;;;;;1.38;0.70;;;10.60;51.10;;;;;;5016472;28;20038;-76
2021/05/03 01:34:49;;;;;;;2.25;0.73;;;10.60;51.20;;;;;;5007069;28;20026;-76
2021/05/03 01:37:16;;;;;;;0.73;0.32;;;10.60;51.20;;;;;;5007463;28;20032;-76
2021/05/03 01:39:42;;;;;;;3.83;0.45;;;10.60;51.20;;;;;;5012063;28;20060;-76
2021/05/03 01:42:08;;;;;;;2.45;0.65;;;10.50;51.30;;;;;;5007377;28;20022;-77
2021/05/03 01:44:34;;;;;;;2.05;0.40;;;10.60;52.10;;;;;;4989174;28;20510;-76
2021/05/03 01:47:00;;;;;;;1.38;0.70;;;10.50;51.40;;;;;;4997841;28;20045;-76
2021/05/03 01:49:26;;;;;;;1.02;0.30;;;10.50;51.50;;;;;;4985585;28;20372;-76
2021/05/03 01:51:53;;;;;;;2.50;0.40;;;10.50;51.50;;;;;;5030910;28;20497;-77
2021/05/03 01:54:19;;;;;;;0.60;0.20;;;10.50;51.60;;;;;;5006199;28;20041;-77
2021/05/03 01:56:45;;;;;;;1.15;0.65;;;10.50;51.70;;;;;;4996565;28;20026;-75
2021/05/03 01:59:11;;;;;;;0.47;0.20;;;10.50;51.80;;;;;;5026188;28;20042;-77
2021/05/03 02:01:38;;;;;;;0.68;0.38;;;10.40;51.80;;;;;;5033948;28;20041;-77
2021/05/03 02:04:05;;;;;;;1.10;0.55;;;10.40;51.90;;;;;;5029100;28;20033;-76
2021/05/03 02:06:31;;;;;;;1.27;0.50;;;10.40;51.90;;;;;;5009213;28;21390;-76
2021/05/03 02:08:57;;;;;;;1.42;0.35;;;10.40;52.00;;;;;;5009408;28;20041;-77
2021/05/03 02:11:23;;;;;;;0.43;0.30;;;10.30;52.00;;;;;;5006585;28;20213;-76
2021/05/03 02:13:49;;;;;;;0.90;0.35;;;10.30;52.10;;;;;;5041721;28;20041;-76
2021/05/03 02:16:16;;;;;;;2.00;0.57;;;10.20;52.20;;;;;;5032648;28;20034;-77
2021/05/03 02:18:42;;;;;;;1.88;0.55;;;10.20;52.30;;;;;;4998232;28;20037;-76
2021/05/03 02:21:08;;;;;;;0.98;0.20;;;10.20;52.40;;;;;;5025614;28;20026;-76
2021/05/03 02:23:34;;;;;;;1.33;0.65;;;10.10;52.40;;;;;;5010192;28;20494;-77
2021/05/03 02:26:00;;;;;;;0.73;0.20;;;10.20;52.50;;;;;;4995688;28;20031;-77
2021/05/03 02:28:26;;;;;;;0.30;0.22;;;10.10;52.50;;;;;;5002086;28;20049;-77
2021/05/03 02:30:52;;;;;;;3.30;0.73;;;10.10;52.50;;;;;;5004358;28;20109;-77
2021/05/03 02:33:18;;;;;;;0.82;0.15;;;10.10;52.60;;;;;;5009204;28;20033;-76
2021/05/03 02:35:44;;;;;;;0.45;0.20;;;10.00;52.60;;;;;;5016275;28;20065;-77
2021/05/03 02:38:12;;;;;;;4.35;0.73;;;10.00;52.70;;;;;;4999937;28;20400;-76
2021/05/03 02:40:38;;;;;;;0.85;0.50;;;10.00;52.70;;;;;;5001026;28;20046;-76
2021/05/03 02:43:04;;;;;;;0.95;0.50;;;9.90;52.80;;;;;;5000964;28;20410;-76
2021/05/03 02:45:31;;;;;;;0.52;0.32;;;9.90;52.90;;;;;;5042096;28;20030;-77
2021/05/03 02:47:57;;;;;;;0.40;0.25;;;9.90;52.90;;;;;;4994754;28;20508;-76
2021/05/03 02:50:23;;;;;;;1.13;0.60;;;9.80;52.90;;;;;;4996820;28;20423;-76
2021/05/03 02:52:50;;;;;;;1.52;0.63;;;9.80;53.00;;;;;;5030197;28;20400;-76
2021/05/03 02:55:16;;;;;;;0.43;0.30;;;9.80;53.00;;;;;;5007274;28;20033;-78
2021/05/03 02:57:43;;;;;;;1.50;0.40;;;9.80;53.10;;;;;;4992129;28;20049;-78
2021/05/03 03:00:11;;;;;;;1.15;0.40;;;9.80;53.10;;;;;;5017005;28;20415;-78
2021/05/03 03:02:37;;;;;;;0.45;0.25;;;9.80;53.10;;;;;;5014938;28;20368;-78
2021/05/03 03:05:04;;;;;;;1.05;0.85;;;9.80;53.20;;;;;;5006655;28;20042;-77
2021/05/03 03:07:30;;;;;;;1.08;0.25;;;9.80;53.20;;;;;;5003657;28;20037;-78
2021/05/03 03:09:56;;;;;;;1.42;0.63;;;9.80;53.20;;;;;;5005813;28;20053;-79
2021/05/03 03:12:23;;;;;;;1.30;0.57;;;9.70;53.30;;;;;;5009029;28;20026;-78
2021/05/03 03:14:49;;;;;;;0.95;0.68;;;9.70;53.40;;;;;;5009341;28;20038;-75
2021/05/03 03:17:15;;;;;;;0.75;0.38;;;9.70;53.40;;;;;;5038583;28;20037;-76
2021/05/03 03:19:42;;;;;;;1.60;0.25;;;9.70;53.50;;;;;;5006346;28;20405;-76
2021/05/03 03:22:08;;;;;;;1.15;0.55;;;9.60;53.50;;;;;;5009978;28;20014;-76
2021/05/03 03:24:34;;;;;;;1.00;0.55;;;9.60;53.60;;;;;;5011880;28;20065;-75
2021/05/03 03:27:01;;;;;;;1.50;0.57;;;9.50;53.60;;;;;;5007535;28;20492;-76
2021/05/03 03:29:27;;;;;;;2.80;0.90;;;9.50;53.60;;;;;;5007921;28;20026;-76
2021/05/03 03:31:53;;;;;;;2.80;0.90;;;9.50;53.70;;;;;;5002795;28;20037;-76
2021/05/03 03:34:19;;;;;;;1.73;0.70;;;9.40;53.80;;;;;;5008085;28;20517;-76
2021/05/03 03:36:46;;;;;;;1.02;0.80;;;9.40;54.40;;;;;;5010747;28;20030;-76
2021/05/03 03:39:13;;;;;;;1.40;0.40;;;9.40;53.90;;;;;;5013341;28;20041;-76
2021/05/03 03:41:39;;;;;;;1.40;0.85;;;9.30;54.00;;;;;;5014526;28;20022;-76
2021/05/03 03:44:05;;;;;;;1.27;0.50;;;9.30;54.00;;;;;;5010673;28;20394;-76
2021/05/03 03:46:31;;;;;;;1.10;0.60;;;9.30;54.00;;;;;;5011456;28;20040;-76
2021/05/03 03:48:57;;;;;;;0.70;0.13;;;9.30;54.10;;;;;;5012699;28;20037;-76
2021/05/03 03:51:23;;;;;;;3.55;0.55;;;9.30;54.00;;;;;;5011862;28;20030;-76
2021/05/03 03:53:50;;;;;;;0.73;0.20;;;9.30;54.10;;;;;;5012969;28;20052;-76
2021/05/03 03:56:18;;;;;;;2.03;0.90;;;9.30;54.10;;;;;;5030447;28;20023;-75
2021/05/03 03:58:44;;;;;;;1.75;0.30;;;9.20;54.20;;;;;;5008669;28;20399;-75
2021/05/03 04:01:10;;;;;;;0.93;0.40;;;9.20;54.30;;;;;;5009456;28;20041;-76
2021/05/03 04:03:54;;;;;;;1.30;0.43;;;9.10;54.30;;;;;;5011352;28;20022;-76
2021/05/03 04:27:42;;;;;;;0.65;0.20;;;8.90;54.50;;;;;;4974690;28;20131;-77
2021/05/03 04:30:12;;;;;;;1.58;0.70;;;8.90;54.60;;;;;;4975757;28;20510;-77
2021/05/03 04:32:38;;;;;;;0.90;0.43;;;8.80;54.60;;;;;;4979112;28;20154;-77
2021/05/03 04:35:04;;;;;;;1.52;0.60;;;8.80;54.70;;;;;;4962209;28;20479;-76
2021/05/03 04:37:31;;;;;;;3.03;0.40;;;8.80;54.70;;;;;;4980974;28;20042;-77
2021/05/03 04:39:57;;;;;;;2.03;0.50;;;8.80;54.80;;;;;;4964579;28;20047;-76
2021/05/03 04:42:23;;;;;;;2.72;0.40;;;8.70;54.80;;;;;;4989979;28;20081;-77
2021/05/03 04:44:49;;;;;;;0.93;0.20;;;8.70;54.80;;;;;;4976074;28;20515;-77
2021/05/03 04:47:15;;;;;;;2.92;0.63;;;8.70;54.90;;;;;;4979195;28;20042;-77
2021/05/03 04:49:41;;;;;;;0.73;0.25;;;8.70;54.90;;;;;;4979945;28;20046;-76
2021/05/03 04:52:07;;;;;;;1.70;0.77;;;8.70;55.00;;;;;;4980463;28;20035;-77
2021/05/03 04:54:34;;;;;;;1.08;0.70;;;8.70;55.00;;;;;;4966269;28;20042;-75
2021/05/03 04:57:00;;;;;;;1.25;0.43;;;8.70;55.00;;;;;;4976187;28;20103;-76
2021/05/03 04:59:26;;;;;;;3.47;0.80;;;8.70;55.30;;;;;;4962718;28;20043;-77
2021/05/03 05:01:52;;;;;;;0.52;0.30;;;8.60;55.00;;;;;;4990468;28;20030;-77
2021/05/03 05:04:18;;;;;;;1.45;0.63;;;8.70;55.70;;;;;;5028164;28;20030;-77
2021/05/03 05:06:44;;;;;;;1.73;0.50;;;8.60;55.00;;;;;;5039761;28;20026;-77
2021/05/03 05:09:10;;;;;;;0.30;0.28;;;8.60;55.10;;;;;;5011853;28;20049;-77
2021/05/03 05:11:36;;;;;;;0.75;0.20;;;8.60;55.10;;;;;;5013757;28;20037;-77
2021/05/03 05:14:02;;;;;;;2.03;0.68;;;8.60;55.10;;;;;;5031723;28;20037;-77
2021/05/03 05:16:29;;;;;;;1.02;0.60;;;8.70;55.20;;;;;;5002805;28;20479;-77
2021/05/03 05:18:55;;;;;;;1.15;0.65;;;8.70;55.20;;;;;;5011432;28;20041;-76
2021/05/03 05:21:21;;;;;;;1.55;0.55;;;8.80;55.10;;;;;;5010773;28;20144;-77
2021/05/03 05:23:48;;;;;;;0.20;0.17;;;9.00;55.00;;;;;;5011516;28;20022;-77
2021/05/03 05:26:14;;;;;;;1.48;0.60;;;9.20;54.80;;;;;;5039500;28;20041;-77
2021/05/03 05:28:40;;;;;;;2.10;0.60;;;9.50;54.50;;;;;;5010379;28;20033;-78
2021/05/03 05:31:06;;;;;;;0.63;0.35;;;9.70;54.30;;;;;;5010631;28;20038;-77
2021/05/03 05:33:32;;;;;;;1.23;0.45;;;9.80;54.00;;;;;;5008589;28;20026;-77
2021/05/03 05:35:58;;;;;;;4.50;0.80;;;9.90;54.00;;;;;;5011764;28;20034;-77
2021/05/03 05:38:24;;;;;;;1.20;0.40;;;9.90;54.00;;;;;;5039951;28;20487;-77
2021/05/03 05:40:51;;;;;;;1.15;0.50;;;10.00;54.00;;;;;;5009144;28;20037;-77
2021/05/03 05:43:17;;;;;;;0.50;0.15;;;10.20;54.00;;;;;;5008355;28;20030;-77
2021/05/03 05:45:43;;;;;;;0.90;0.28;;;10.40;53.90;;;;;;5010516;28;20057;-77
2021/05/03 05:48:09;;;;;;;2.78;0.57;;;10.60;53.60;;;;;;5009901;28;20022;-80
2021/05/03 05:50:35;;;;;;;6.28;1.23;;;10.80;53.50;;;;;;4992621;28;20360;-78
2021/05/03 05:53:01;;;;;;;0.90;0.25;;;11.00;53.30;;;;;;5008743;28;20034;-76
2021/05/03 05:55:27;;;;;;;0.82;0.43;;;11.20;53.10;;;;;;5010069;28;20033;-75
2021/05/03 05:57:53;;;;;;;7.30;1.13;;;11.30;53.00;;;;;;5009302;28;20026;-76
2021/05/03 06:00:20;;;;;;;1.58;0.40;;;11.50;52.90;;;;;;5010004;28;20049;-77
2021/05/03 06:02:46;;;;;;;1.20;0.65;;;11.70;52.80;;;;;;5010705;28;20045;-78
2021/05/03 06:05:12;;;;;;;1.92;0.60;;;11.90;52.70;;;;;;5011379;28;20040;-78
2021/05/03 06:07:38;;;;;;;0.93;0.22;;;12.10;52.50;;;;;;5010509;28;20029;-78
2021/05/03 06:10:05;;;;;;;1.92;0.70;;;12.30;52.30;;;;;;4994651;28;20061;-78
2021/05/03 06:12:31;;;;;;;3.40;0.80;;;12.40;52.10;;;;;;5007663;28;20042;-78
2021/05/03 06:14:57;;;;;;;1.52;0.63;;;12.60;52.10;;;;;;5010416;28;20053;-77
2021/05/03 06:17:23;;;;;;;3.42;0.98;;;12.60;52.00;;;;;;5008823;28;20043;-78
2021/05/03 06:19:49;;;;;;;3.47;1.15;;;12.70;52.00;;;;;;5008029;28;20068;-78
2021/05/03 06:22:15;;;;;;;3.05;0.60;;;12.70;52.00;;;;;;5010518;28;20026;-78
2021/05/03 06:24:42;;;;;;;2.03;1.10;;;12.80;52.10;;;;;;5010031;28;20034;-78
2021/05/03 06:27:08;;;;;;;0.55;0.30;;;12.80;52.00;;;;;;5009552;28;20034;-76
2021/05/03 06:29:34;;;;;;;4.63;0.85;;;12.80;52.10;;;;;;5011242;28;20470;-77
2021/05/03 06:32:00;;;;;;;1.60;0.45;;;12.80;52.00;;;;;;5007419;28;20038;-78
2021/05/03 06:34:30;;;;;;;2.55;0.93;;;13.00;51.90;;;;;;5010400;28;20049;-77
2021/05/03 06:36:57;;;;;;;6.32;0.70;;;13.00;51.80;;;;;;5009490;28;20026;-78
2021/05/03 06:39:23;;;;;;;2.88;1.17;;;13.10;51.70;;;;;;5004973;28;20375;-77
2021/05/03 06:41:49;;;;;;;2.17;0.82;;;13.10;51.70;;;;;;5008197;28;20030;-81
2021/05/03 06:44:16;;;;;;;3.58;0.80;;;13.20;51.70;;;;;;5019619;28;20053;-79
2021/05/03 06:46:42;;;;;;;2.65;0.95;;;13.30;51.60;;;;;;5004720;28;20394;-76
2021/05/03 06:49:09;;;;;;;1.48;0.40;;;13.60;51.40;;;;;;5021266;28;20061;-77
2021/05/03 06:51:35;;;;;;;2.20;0.73;;;13.80;51.10;;;;;;5007595;28;20042;-77
2021/05/03 06:54:01;;;;;;;1.25;0.55;;;13.80;51.00;;;;;;5014161;28;20053;-78
2021/05/03 06:56:27;;;;;;;1.52;0.82;;;13.90;51.10;;;;;;5004761;28;20026;-78
2021/05/03 06:58:53;;;;;;;2.55;0.40;;;13.90;51.10;;;;;;5008935;28;20471;-78
2021/05/03 07:01:21;;;;;;;2.97;1.25;;;14.00;51.00;;;;;;5005763;28;20344;-77
2021/05/03 07:03:48;;;;;;;1.77;1.23;;;14.10;50.80;;;;;;5008816;28;20390;-78
2021/05/03 07:06:14;;;;;;;2.20;1.10;;;14.30;50.70;;;;;;5032080;28;20042;-78
2021/05/03 07:08:41;;;;;;;2.83;0.90;;;14.60;50.50;;;;;;5016288;28;20492;-78
2021/05/03 07:11:16;;;;;;;2.33;0.77;;;14.90;50.20;;;;;;5008133;28;20386;-78
2021/05/03 07:13:42;;;;;;;2.50;1.33;;;15.10;49.90;;;;;;5007326;28;20034;-78
2021/05/03 07:16:08;;;;;;;5.95;0.63;;;15.10;49.90;;;;;;5000793;28;20038;-78
2021/05/03 07:18:34;;;;;;;2.00;0.73;;;15.10;50.10;;;;;;5013276;28;20734;-78
2021/05/03 07:21:00;;;;;;;1.13;0.60;;;15.00;50.10;;;;;;4999694;28;20046;-78
2021/05/03 07:23:26;;;;;;;1.63;0.43;;;15.10;50.20;;;;;;5002880;28;20049;-78
2021/05/03 07:25:52;;;;;;;0.95;0.40;;;15.30;50.00;;;;;;5010641;28;20034;-77
2021/05/03 07:28:18;;;;;;;1.73;0.85;;;15.50;49.60;;;;;;5035620;28;20030;-78
2021/05/03 07:30:45;;;;;;;5.57;0.52;;;15.70;49.50;;;;;;5024922;28;20054;-79
2021/05/03 07:33:11;;;;;;;2.00;0.93;;;15.80;49.50;;;;;;5011097;28;20037;-79
2021/05/03 07:35:37;;;;;;;7.80;1.65;;;15.80;49.50;;;;;;5011111;28;20042;-80
2021/05/03 07:38:03;;;;;;;1.75;0.65;;;16.00;49.40;;;;;;5009632;28;20056;-80
2021/05/03 07:40:29;;;;;;;2.60;0.90;;;16.20;49.20;;;;;;5009262;28;20046;-78
2021/05/03 07:42:55;;;;;;;1.60;0.45;;;16.50;48.90;;;;;;4998997;28;20065;-77
2021/05/03 07:45:21;;;;;;;3.60;1.13;;;16.70;48.60;;;;;;4997960;28;20030;-78
2021/05/03 07:47:47;;;;;;;2.10;1.02;;;17.00;48.30;;;;;;5006821;28;20486;-77
2021/05/03 07:50:13;;;;;;;4.20;1.60;;;17.10;48.00;;;;;;5009319;28;20037;-76
2021/05/03 07:52:39;;;;;;;5.35;1.05;;;17.10;48.00;;;;;;5019681;28;20038;-78
2021/05/03 07:55:06;;;;;;;2.50;0.98;;;17.10;48.20;;;;;;5011944;28;20389;-79
2021/05/03 07:57:33;;;;;;;1.58;0.80;;;17.00;48.20;;;;;;5002534;28;20391;-78
2021/05/03 07:59:59;;;;;;;5.78;0.82;;;17.00;48.20;;;;;;4996192;28;20042;-78
2021/05/03 08:02:25;;;;;;;3.03;0.70;;;17.10;48.30;;;;;;5009164;28;20025;-78
2021/05/03 08:04:52;;;;;;;3.40;1.05;;;17.10;48.20;;;;;;5037330;28;20034;-79
2021/05/03 08:07:18;;;;;;;1.42;0.63;;;17.20;48.10;;;;;;5008874;28;20033;-78
2021/05/03 08:09:44;;;;;;;2.35;0.98;;;17.40;48.00;;;;;;5012806;28;20360;-79
2021/05/03 08:12:11;;;;;;;2.97;1.00;;;17.60;47.60;;;;;;4982582;28;20052;-78
2021/05/03 08:14:37;;;;;;;1.50;0.47;;;18.00;47.30;;;;;;5006210;28;20041;-78
2021/05/03 08:17:09;;;;;;;2.13;0.52;;;18.10;47.00;;;;;;5000502;28;20039;-77
2021/05/03 08:19:35;;;;;;;1.55;0.60;;;18.30;46.90;;;;;;5006046;28;20033;-78
2021/05/03 08:22:02;;;;;;;2.45;0.63;;;18.40;46.60;;;;;;4992156;28;20034;-78
2021/05/03 08:24:29;;;;;;;1.60;0.88;;;18.60;46.40;;;;;;5010922;28;20026;-78
2021/05/03 08:26:55;;;;;;;5.00;1.33;;;18.90;46.10;;;;;;4996841;28;20397;-79
2021/05/03 08:29:21;;;;;;;2.83;0.57;;;19.20;45.80;;;;;;4995706;28;20082;-78
2021/05/03 08:31:47;;;;;;;1.65;0.77;;;19.40;45.50;;;;;;4987978;28;20034;-79
2021/05/03 08:34:13;;;;;;;5.20;0.77;;;19.60;45.30;;;;;;5007958;28;20034;-76
2021/05/03 08:36:40;;;;;;;1.20;0.47;;;19.80;45.10;;;;;;4988189;28;20034;-79
2021/05/03 08:39:06;;;;;;;2.00;0.73;;;19.90;44.90;;;;;;4989111;28;20468;-80
2021/05/03 08:41:33;;;;;;;2.63;1.13;;;20.00;44.90;;;;;;4987625;28;20046;-79
2021/05/03 08:44:00;;;;;;;2.75;0.80;;;20.20;44.80;;;;;;4996799;28;20041;-78
2021/05/03 08:46:27;;;;;;;4.35;0.70;;;20.30;44.60;;;;;;4982997;28;20050;-80
2021/05/03 08:54:16;;;;;;;1.50;0.68;;;20.80;44.00;;;;;;4964810;28;709822;-77
2021/05/03 08:56:42;;;;;;;2.28;0.60;;;21.00;43.90;;;;;;5007154;28;20042;-81
2021/05/03 08:59:08;;;;;;;2.75;1.00;;;21.20;43.70;;;;;;4986493;28;20483;-80
2021/05/03 09:01:35;;;;;;;1.35;0.47;;;21.30;43.40;;;;;;4987306;28;20053;-79
2021/05/03 09:04:01;;;;;;;2.10;0.82;;;21.30;43.30;;;;;;4970846;28;20495;-80
2021/05/03 09:06:27;;;;;;;2.17;0.90;;;21.40;43.20;;;;;;4990733;28;20038;-79
2021/05/03 09:09:07;;;;;;;1.40;0.30;;;21.40;43.20;;;;;;5021812;28;20027;-77
2021/05/03 09:11:34;;;;;;;3.63;0.80;;;21.50;43.20;;;;;;4992406;28;20045;-80
2021/05/03 09:14:07;;;;;;;2.03;0.47;;;21.70;43.00;;;;;;4980716;28;20397;-80
2021/05/03 09:16:35;;;;;;;0.68;0.20;;;21.80;42.60;;;;;;4983042;28;20031;-80
2021/05/03 09:19:03;;;;;;;3.45;0.77;;;21.70;42.60;;;;;;4987075;28;20031;-80
2021/05/03 09:21:31;;;;;;;2.65;0.47;;;21.70;42.70;;;;;;5005577;28;20041;-79
2021/05/03 09:24:11;;;;;;;6.70;0.70;;;21.70;42.60;;;;;;4980742;28;20025;-80
2021/05/03 09:26:47;;;;;;;0.68;0.20;;;21.70;42.50;;;;;;5008565;28;20491;-82
2021/05/03 09:29:31;;;;;;;4.07;0.55;;;21.90;42.30;;;;;;4986142;28;20066;-80
2021/05/03 09:32:10;;;;;;;1.85;0.73;;;22.10;42.00;;;;;;4981578;28;20035;-80
2021/05/03 09:34:37;;;;;;;4.10;0.60;;;22.20;41.80;;;;;;4982548;28;20415;-79
2021/05/03 09:37:18;;;;;;;0.88;0.43;;;22.30;41.50;;;;;;4986148;28;20050;-80
2021/05/03 09:39:50;;;;;;;;;;;22.20;41.20;;;;;;4978016;28;20031;-78
2021/05/03 09:42:16;;;;;;;1.13;0.50;;;22.20;41.30;;;;;;4982663;28;19921;-78
2021/05/03 09:45:07;;;;;;;1.40;0.60;;;22.10;41.20;;;;;;4987520;28;20035;-78
2021/05/03 09:47:34;;;;;;;1.80;0.85;;;21.90;41.20;;;;;;4998510;28;20042;-81
2021/05/03 09:50:14;;;;;;;6.07;0.52;;;21.90;41.30;;;;;;5011791;28;20026;-81
2021/05/03 09:53:00;;;;;;;2.22;0.50;;;22.00;41.20;;;;;;4984981;28;20057;-79
2021/05/03 09:55:46;;;;;;;1.17;0.28;;;22.20;41.00;;;;;;4977320;28;20041;-78
2021/05/03 09:58:20;;;;;;;2.03;0.47;;;22.30;40.60;;;;;;4990392;28;20515;-78
2021/05/03 10:00:48;;;;;;;1.92;0.63;;;22.40;40.30;;;;;;4974504;28;20050;-79
2021/05/03 10:03:47;;;;;;;1.92;0.40;;;22.40;40.30;;;;;;5014988;28;20141;-78
2021/05/03 10:06:15;;;;;;;1.35;0.20;;;22.40;40.10;;;;;;4953846;28;20031;-78
2021/05/03 10:08:44;;;;;;;0.75;0.30;;;22.30;40.20;;;;;;4953993;28;20047;-80
2021/05/03 10:11:14;;;;;;;0.75;0.35;;;22.20;40.20;;;;;;4935572;29;20032;-79
2021/05/03 10:13:41;;;;;;;1.73;0.38;;;22.30;40.10;;;;;;4963116;28;20026;-83
2021/05/03 10:16:08;;;;;;;0.95;0.47;;;22.40;39.90;;;;;;4958447;28;20042;-79
2021/05/03 10:18:38;;;;;;;3.13;0.10;;;22.50;39.40;;;;;;4947590;28;20038;-85
2021/05/03 10:21:10;;;;;;;1.25;0.22;;;22.70;39.20;;;;;;4987414;28;20435;-80
2021/05/03 10:23:40;;;;;;;0.50;0.00;;;22.80;38.80;;;;;;4970321;28;20065;-81
2021/05/03 10:26:07;;;;;;;0.65;0.08;;;22.90;39.20;;;;;;4953253;28;20031;-83
2021/05/03 10:28:49;;;;;;;0.73;0.17;;;23.00;38.20;;;;;;4954281;28;20507;-83
2021/05/03 10:31:15;;;;;;;0.32;0.03;;;23.00;38.00;;;;;;4967218;28;20392;-82
2021/05/03 10:33:41;;;;;;;2.38;0.10;;;23.00;37.70;;;;;;4970026;28;20034;-80
2021/05/03 10:36:07;;;;;;;0.43;0.10;;;23.00;37.40;;;;;;4970581;28;20537;-80
2021/05/03 10:38:39;;;;;;;1.52;0.30;;;22.90;37.30;;;;;;4972367;28;20482;-82
2021/05/03 10:41:27;;;;;;;0.73;0.13;;;22.90;37.20;;;;;;4986351;28;20058;-78
2021/05/03 10:44:29;;;;;;;0.10;0.03;;;22.90;37.00;;;;;;4990153;28;20026;-79
2021/05/03 10:47:00;;;;;;;;;;;22.90;36.80;;;;;;5004869;28;20080;-80
2021/05/03 10:49:31;;;;;;;1.52;0.25;;;22.90;36.90;;;;;;4999317;28;19909;-80
2021/05/03 10:52:03;;;;;;;0.82;0.20;;;23.00;37.00;;;;;;5007024;28;20526;-79
2021/05/03 10:54:37;;;;;;;0.73;0.15;;;23.00;36.80;;;;;;5006763;28;20054;-78
2021/05/03 10:57:07;;;;;;;1.27;0.20;;;23.00;36.60;;;;;;5007132;28;20038;-77
2021/05/03 10:59:46;;;;;;;0.52;0.13;;;23.00;36.60;;;;;;5008015;28;20125;-77
2021/05/03 11:02:19;;;;;;;0.30;0.10;;;23.10;36.40;;;;;;5019681;28;20486;-79
2021/05/03 11:05:25;;;;;;;2.95;0.13;;;23.20;36.40;;;;;;5001715;28;20034;-78
2021/05/03 11:08:03;;;;;;;0.17;0.00;;;23.30;36.20;;;;;;4958448;28;20070;-78
2021/05/03 11:10:57;;;;;;;0.10;0.00;;;23.30;36.10;;;;;;4960797;28;20031;-78
2021/05/03 11:13:39;;;;;;;0.10;0.00;;;23.20;36.00;;;;;;4962730;28;20043;-77
2021/05/03 11:16:30;;;;;;;0.20;0.10;;;23.20;35.90;;;;;;4955524;28;20058;-77
2021/05/03 11:19:01;;;;;;;0.50;0.20;;;23.20;35.90;;;;;;4962161;28;20112;-78
2021/05/03 11:21:56;;;;;;;0.50;0.10;;;23.20;35.90;;;;;;4921702;28;20051;-77
2021/05/03 11:24:38;;;;;;;0.70;0.17;;;23.10;35.80;;;;;;4951553;28;20040;-78
2021/05/03 11:27:08;;;;;;;0.05;0.00;;;23.00;35.90;;;;;;4933183;29;20036;-78
2021/05/03 11:29:42;;;;;;;0.73;0.10;;;23.00;35.90;;;;;;4937656;29;20035;-78
2021/05/03 11:32:08;;;;;;;0.55;0.03;;;23.00;35.80;;;;;;4937458;28;20031;-78
2021/05/03 11:34:44;;;;;;;0.80;0.15;;;23.00;35.80;;;;;;4958853;28;20047;-79
2021/05/03 11:37:15;;;;;;;0.22;0.10;;;23.10;35.70;;;;;;4957185;28;20034;-79
2021/05/03 11:39:56;;;;;;;0.50;0.10;;;23.10;35.60;;;;;;4989372;28;20046;-79
2021/05/03 11:42:42;;;;;;;0.15;0.05;;;23.10;35.60;;;;;;4965415;28;20046;-78
2021/05/03 11:45:15;;;;;;;0.28;0.10;;;23.20;35.50;;;;;;4993079;28;20073;-80
2021/05/03 11:47:44;;;;;;;0.35;0.10;;;23.20;35.40;;;;;;4991832;28;20037;-79
2021/05/03 11:50:10;;;;;;;0.40;0.10;;;23.00;35.40;;;;;;5010332;28;20033;-80
2021/05/03 11:52:37;;;;;;;3.50;0.35;;;23.00;35.50;;;;;;5012981;28;20053;-80
2021/05/03 11:55:07;;;;;;;0.25;0.05;;;22.90;35.40;;;;;;5009556;28;20084;-79
2021/05/03 11:57:33;;;;;;;1.55;0.00;;;22.90;35.40;;;;;;5011418;28;20022;-79
2021/05/03 12:00:04;;;;;;;0.50;0.10;;;23.00;35.30;;;;;;4994664;28;20037;-79
2021/05/03 12:02:30;;;;;;;0.65;0.20;;;23.00;35.10;;;;;;5013504;28;20038;-79
2021/05/03 12:04:57;;;;;;;1.13;0.22;;;23.00;35.20;;;;;;5009643;28;20026;-79
2021/05/03 12:07:29;;;;;;;0.50;0.20;;;23.00;35.10;;;;;;5012960;28;20029;-78
2021/05/03 12:10:15;;;;;;;0.30;0.00;;;23.00;35.00;;;;;;5038353;28;20476;-79
2021/05/03 12:12:48;;;;;;;1.60;0.68;;;23.10;35.00;;;;;;5011647;28;20028;-78
2021/05/03 12:15:18;;;;;;;0.45;0.10;;;23.10;34.90;;;;;;5000841;28;20034;-78
2021/05/03 12:17:44;;;;;;;2.92;0.57;;;23.00;34.90;;;;;;5041824;28;20774;-79
2021/05/03 12:20:15;;;;;;;0.20;0.05;;;22.90;35.00;;;;;;5037364;28;20030;-78
2021/05/03 12:22:57;;;;;;;0.82;0.28;;;22.80;35.10;;;;;;5009243;28;20041;-78
2021/05/03 12:25:24;;;;;;;0.00;0.00;;;22.80;35.10;;;;;;5009543;28;20490;-78
2021/05/03 12:27:51;;;;;;;0.65;0.20;;;22.90;35.10;;;;;;5009616;28;20030;-79
2021/05/03 12:30:18;;;;;;;0.20;0.00;;;23.00;34.90;;;;;;4992982;28;20065;-79
2021/05/03 12:32:44;;;;;;;1.00;0.20;;;23.10;34.80;;;;;;4996102;28;20026;-79
2021/05/03 12:35:18;;;;;;;0.55;0.00;;;23.20;34.80;;;;;;5009172;28;20029;-78
2021/05/03 12:37:44;;;;;;;0.40;0.10;;;23.10;34.70;;;;;;5010144;28;20021;-79
2021/05/03 12:40:11;;;;;;;0.50;0.10;;;23.10;34.80;;;;;;4993767;28;20030;-78
2021/05/03 12:42:45;;;;;;;0.75;0.17;;;23.00;34.70;;;;;;5008855;28;20391;-78
2021/05/03 12:45:13;;;;;;;0.55;0.10;;;23.00;34.80;;;;;;5010418;28;20046;-79
2021/05/03 12:50:35;;;;;;;1.00;0.15;;;22.90;34.80;;;;;;5012295;28;20487;-80
2021/05/03 13:03:29;;;;;;;0.10;0.00;;;22.90;34.50;;;;;;5016381;28;20073;-78
2021/05/03 13:06:16;;;;;;;0.28;0.08;;;22.90;34.50;;;;;;4994815;28;20026;-78
2021/05/03 13:29:07;;;;;;;0.35;0.03;;;22.70;34.50;;;;;;4977226;28;20045;-79
2021/05/03 13:31:34;;;;;;;0.00;0.00;;;22.80;34.70;;;;;;4979970;28;20030;-81
2021/05/03 13:34:00;;;;;;;0.22;0.10;;;22.80;34.40;;;;;;4952932;28;20043;-81
2021/05/03 13:36:27;;;;;;;0.20;0.00;;;22.70;34.30;;;;;;4953942;28;20038;-80
2021/05/03 13:38:53;;;;;;;1.35;0.10;;;22.80;34.30;;;;;;4986959;28;20030;-81
2021/05/03 13:41:20;;;;;;;0.22;0.08;;;22.80;34.10;;;;;;4973569;28;20047;-81
2021/05/03 13:43:46;;;;;;;0.10;0.00;;;22.80;34.10;;;;;;4978348;28;20043;-79
2021/05/03 13:46:12;;;;;;;2.55;0.10;;;22.70;34.10;;;;;;4984275;28;20031;-79
2021/05/03 13:48:39;;;;;;;0.05;0.00;;;22.70;34.20;;;;;;4960833;28;20177;-79
2021/05/03 13:51:08;;;;;;;0.30;0.00;;;22.80;34.20;;;;;;4964257;28;20062;-79
2021/05/03 13:53:35;;;;;;;0.15;0.00;;;22.80;34.20;;;;;;4963934;28;20038;-79
2021/05/03 13:56:01;;;;;;;0.40;0.15;;;22.70;34.20;;;;;;4957965;28;20034;-79
2021/05/03 13:58:27;;;;;;;2.72;0.10;;;22.70;34.20;;;;;;4981552;28;20035;-79